Time;durP1;ratioP1;P1;durP2;ratioP2;P2;SDS_P1;SDS_P2;PMS_P1;PMS_P2;Temp;Humidity;BMP_temperature;BMP_pressure;BME280_temperature;BME280_humidity;BME280_pressure;Samples;Min_cycle;Max_cycle;Signal;HPM_P1;HPM_P2
2020/12/22 00:02:18;;;;;;;1.55;0.98;;;5.80;99.90;;;;;;4386097;32;20118;-59
2020/12/22 00:04:43;;;;;;;4.12;1.40;;;5.80;99.90;;;;;;4386935;32;20058;-57
2020/12/22 00:07:09;;;;;;;0.85;0.50;;;5.80;99.90;;;;;;4400745;32;20066;-58
2020/12/22 00:09:34;;;;;;;0.52;0.52;;;5.80;99.90;;;;;;4400498;32;20066;-58
2020/12/22 00:12:00;;;;;;;0.65;0.65;;;5.90;99.90;;;;;;4401140;32;20066;-56
2020/12/22 00:14:25;;;;;;;2.83;1.12;;;5.90;99.90;;;;;;4401156;32;20086;-57
2020/12/22 00:16:50;;;;;;;0.93;0.90;;;5.90;99.90;;;;;;4400965;32;20050;-58
2020/12/22 00:19:16;;;;;;;0.98;0.95;;;5.90;99.90;;;;;;4386707;32;20067;-59
2020/12/22 00:21:41;;;;;;;1.30;0.90;;;5.90;99.90;;;;;;4385583;32;20074;-58
2020/12/22 00:24:07;;;;;;;2.08;1.15;;;5.90;99.90;;;;;;4384496;32;20082;-59
2020/12/22 00:26:33;;;;;;;0.43;0.43;;;5.90;99.90;;;;;;4384771;32;20091;-59
2020/12/22 00:28:58;;;;;;;1.23;0.88;;;5.90;99.90;;;;;;4372773;32;20074;-59
2020/12/22 00:31:24;;;;;;;0.73;0.65;;;6.00;99.90;;;;;;4386026;32;20518;-54
2020/12/22 00:36:15;;;;;;;0.62;0.62;;;6.00;99.90;;;;;;4384852;32;20051;-57
2020/12/22 00:38:43;;;;;;;0.80;0.65;;;6.00;99.90;;;;;;4371630;32;20121;-58
2020/12/22 00:41:13;;;;;;;0.60;0.60;;;6.10;99.90;;;;;;4386029;32;20051;-57
2020/12/22 00:43:40;;;;;;;1.80;1.00;;;6.10;99.90;;;;;;4384692;32;20065;-58
2020/12/22 00:46:05;;;;;;;0.77;0.75;;;6.10;99.90;;;;;;4385688;32;20129;-57
2020/12/22 00:48:31;;;;;;;0.52;0.52;;;6.10;99.90;;;;;;4386432;32;20058;-57
2020/12/22 00:50:56;;;;;;;4.65;1.62;;;6.10;99.90;;;;;;4385945;32;20071;-57
2020/12/22 00:53:22;;;;;;;1.80;1.20;;;6.20;99.90;;;;;;4384600;32;20066;-57
2020/12/22 00:55:47;;;;;;;1.27;0.68;;;6.10;99.90;;;;;;4383890;32;20425;-57
2020/12/22 00:58:13;;;;;;;1.20;0.68;;;6.10;99.90;;;;;;4385768;32;20063;-59
2020/12/22 01:00:39;;;;;;;1.27;1.12;;;6.20;99.90;;;;;;4386075;32;20069;-56
2020/12/22 01:03:04;;;;;;;3.83;1.23;;;6.20;99.90;;;;;;4384701;32;20072;-54
2020/12/22 01:05:30;;;;;;;0.80;0.80;;;6.20;99.90;;;;;;4389785;32;20066;-58
2020/12/22 01:07:55;;;;;;;0.80;0.75;;;6.30;99.90;;;;;;4400677;32;20066;-55
2020/12/22 01:10:20;;;;;;;1.02;0.80;;;6.30;99.90;;;;;;4400085;32;20066;-58
2020/12/22 01:12:46;;;;;;;1.75;0.80;;;6.30;99.90;;;;;;4400472;32;20074;-54
2020/12/22 01:15:11;;;;;;;1.33;0.98;;;6.40;99.90;;;;;;4399546;32;20054;-54
2020/12/22 01:17:37;;;;;;;0.60;0.60;;;6.40;99.90;;;;;;4395788;32;20402;-56
2020/12/22 01:20:03;;;;;;;1.10;1.02;;;6.50;99.90;;;;;;4386001;32;20113;-58
2020/12/22 01:22:28;;;;;;;1.92;1.42;;;6.50;99.90;;;;;;4385726;32;20066;-58
2020/12/22 01:24:54;;;;;;;0.75;0.73;;;6.50;99.90;;;;;;4385344;32;20508;-59
2020/12/22 01:27:19;;;;;;;0.70;0.70;;;6.50;99.90;;;;;;4384327;32;20078;-59
2020/12/22 01:29:44;;;;;;;0.95;0.95;;;6.50;99.90;;;;;;4384969;32;20055;-56
2020/12/22 01:32:10;;;;;;;0.75;0.73;;;6.50;99.90;;;;;;4384793;32;20145;-56
2020/12/22 01:34:35;;;;;;;0.62;0.60;;;6.60;99.90;;;;;;4385404;32;20074;-58
2020/12/22 01:37:01;;;;;;;1.52;0.70;;;6.70;99.90;;;;;;4385779;32;20125;-56
2020/12/22 01:39:26;;;;;;;1.52;0.80;;;6.80;99.90;;;;;;4384454;32;20075;-54
2020/12/22 01:41:52;;;;;;;1.30;0.95;;;6.70;99.90;;;;;;4383806;32;20537;-58
2020/12/22 01:44:18;;;;;;;0.88;0.88;;;6.70;99.90;;;;;;4385077;32;20062;-58
2020/12/22 01:46:47;;;;;;;1.10;1.00;;;6.70;99.90;;;;;;4385388;32;20130;-59
2020/12/22 01:49:23;;;;;;;0.77;0.77;;;6.80;99.90;;;;;;4384720;32;20074;-57
2020/12/22 01:51:50;;;;;;;1.02;0.85;;;6.80;99.90;;;;;;4384022;32;20079;-59
2020/12/22 01:54:16;;;;;;;0.80;0.68;;;6.90;99.90;;;;;;4383844;32;20117;-57
2020/12/22 01:56:42;;;;;;;0.45;0.45;;;6.90;99.90;;;;;;4383683;32;20067;-56
2020/12/22 01:59:07;;;;;;;1.73;1.00;;;6.90;99.90;;;;;;4385303;32;20062;-56
2020/12/22 02:01:34;;;;;;;1.25;0.95;;;6.90;99.90;;;;;;4385455;32;20442;-57
2020/12/22 02:04:00;;;;;;;0.47;0.47;;;7.00;99.90;;;;;;4371376;32;20061;-58
2020/12/22 02:06:28;;;;;;;0.50;0.50;;;7.00;99.90;;;;;;4394528;32;20054;-57
2020/12/22 02:08:54;;;;;;;3.30;0.52;;;7.10;99.90;;;;;;4385736;32;20461;-57
2020/12/22 02:11:26;;;;;;;0.68;0.68;;;7.10;99.90;;;;;;4398774;32;20130;-55
2020/12/22 02:13:52;;;;;;;0.77;0.77;;;7.00;99.90;;;;;;4399408;32;20405;-57
2020/12/22 02:16:18;;;;;;;1.08;1.02;;;6.90;99.90;;;;;;4386190;32;20058;-57
2020/12/22 02:18:44;;;;;;;0.50;0.50;;;6.80;99.90;;;;;;4387474;32;20058;-60
2020/12/22 02:21:10;;;;;;;3.20;1.77;;;6.80;99.90;;;;;;4384129;32;20079;-54
2020/12/22 02:23:35;;;;;;;1.67;0.93;;;6.90;99.90;;;;;;4393782;32;20514;-55
2020/12/22 02:26:01;;;;;;;0.57;0.57;;;6.90;99.90;;;;;;4398853;32;20074;-59
2020/12/22 02:28:26;;;;;;;4.70;1.50;;;6.90;99.90;;;;;;4399890;32;20054;-58
2020/12/22 02:30:52;;;;;;;0.98;0.82;;;6.80;99.90;;;;;;4400132;32;20513;-57
2020/12/22 02:33:17;;;;;;;1.70;1.17;;;6.80;99.90;;;;;;4399557;32;20058;-57
2020/12/22 02:35:43;;;;;;;1.25;1.15;;;6.70;99.90;;;;;;4400172;32;20078;-59
2020/12/22 02:38:09;;;;;;;2.20;1.40;;;6.70;99.90;;;;;;4399789;32;20078;-58
2020/12/22 02:40:34;;;;;;;1.17;0.95;;;6.70;99.90;;;;;;4400002;32;20070;-56
2020/12/22 02:43:16;;;;;;;0.98;0.93;;;6.70;99.90;;;;;;4397993;32;20511;-58
2020/12/22 02:45:42;;;;;;;1.08;0.93;;;6.70;99.90;;;;;;4397052;32;20078;-56
2020/12/22 02:48:09;;;;;;;8.45;1.45;;;6.70;99.90;;;;;;4399639;32;20517;-57
2020/12/22 02:50:35;;;;;;;0.60;0.60;;;6.70;99.90;;;;;;4399365;32;20125;-57
2020/12/22 02:53:00;;;;;;;2.15;1.33;;;6.70;99.90;;;;;;4398022;32;21015;-56
2020/12/22 02:55:26;;;;;;;1.50;1.02;;;6.60;99.90;;;;;;4399026;32;20070;-59
2020/12/22 02:57:51;;;;;;;2.22;1.23;;;6.60;99.90;;;;;;4399831;32;20062;-59
2020/12/22 03:00:17;;;;;;;0.57;0.45;;;6.60;99.90;;;;;;4399165;32;20062;-59
2020/12/22 03:02:42;;;;;;;2.95;1.08;;;6.60;99.90;;;;;;4397498;32;20393;-55
2020/12/22 03:05:08;;;;;;;1.08;0.95;;;6.60;99.90;;;;;;4396143;32;20066;-55
2020/12/22 03:07:34;;;;;;;0.82;0.82;;;6.60;99.90;;;;;;4384412;32;20543;-57
2020/12/22 03:09:59;;;;;;;0.55;0.55;;;6.60;99.90;;;;;;4383195;32;20121;-58
2020/12/22 03:12:24;;;;;;;0.88;0.85;;;6.60;99.90;;;;;;4397076;32;20078;-59
2020/12/22 03:14:50;;;;;;;1.73;1.05;;;6.70;99.90;;;;;;4398679;32;20122;-58
2020/12/22 03:17:15;;;;;;;1.25;1.02;;;6.70;99.90;;;;;;4395993;32;20505;-59
2020/12/22 03:19:41;;;;;;;1.37;1.25;;;6.60;99.90;;;;;;4384114;32;20055;-59
2020/12/22 03:22:07;;;;;;;1.15;1.05;;;6.70;99.90;;;;;;4384366;32;20073;-58
2020/12/22 03:24:33;;;;;;;1.08;0.73;;;6.70;99.90;;;;;;4382716;32;20063;-54
2020/12/22 03:26:58;;;;;;;0.88;0.88;;;6.80;99.90;;;;;;4382809;32;20437;-54
2020/12/22 03:29:24;;;;;;;1.33;1.12;;;6.80;99.90;;;;;;4382057;32;20070;-59
2020/12/22 03:31:49;;;;;;;0.50;0.50;;;6.80;99.90;;;;;;4383709;32;20078;-56
2020/12/22 03:34:15;;;;;;;0.70;0.70;;;6.80;99.90;;;;;;4383082;32;20067;-57
2020/12/22 03:36:40;;;;;;;1.20;0.62;;;6.90;99.90;;;;;;4383675;32;20059;-59
2020/12/22 03:39:06;;;;;;;2.83;1.62;;;6.90;99.90;;;;;;4383126;32;20078;-60
2020/12/22 03:41:31;;;;;;;3.67;0.90;;;6.90;99.90;;;;;;4382869;32;20349;-57
2020/12/22 03:43:57;;;;;;;1.52;1.05;;;6.90;99.90;;;;;;4382999;32;20080;-57
2020/12/22 03:46:23;;;;;;;0.47;0.47;;;6.90;99.90;;;;;;4383405;32;20066;-57
2020/12/22 03:48:49;;;;;;;1.23;0.90;;;6.90;99.90;;;;;;4383671;32;20126;-59
2020/12/22 03:51:15;;;;;;;1.92;1.35;;;6.90;99.90;;;;;;4384052;32;20582;-59
2020/12/22 03:53:40;;;;;;;0.50;0.50;;;6.90;99.90;;;;;;4382679;32;20079;-58
2020/12/22 03:56:06;;;;;;;1.70;1.35;;;7.00;99.90;;;;;;4383513;32;20063;-57
2020/12/22 03:58:32;;;;;;;0.75;0.75;;;6.90;99.90;;;;;;4384098;32;20179;-59
2020/12/22 04:00:58;;;;;;;0.60;0.60;;;7.00;99.90;;;;;;4382522;32;20529;-60
2020/12/22 04:03:25;;;;;;;2.28;0.73;;;7.00;99.90;;;;;;4383141;32;20067;-56
2020/12/22 04:05:51;;;;;;;0.88;0.62;;;7.10;99.90;;;;;;4390259;32;20110;-57
2020/12/22 04:08:17;;;;;;;1.67;1.15;;;7.10;99.90;;;;;;4399085;32;20507;-55
2020/12/22 04:10:42;;;;;;;0.90;0.57;;;7.10;99.90;;;;;;4392570;32;20125;-59
2020/12/22 04:13:08;;;;;;;1.08;1.02;;;7.00;99.90;;;;;;4384043;32;20074;-57
2020/12/22 04:15:33;;;;;;;0.60;0.60;;;7.00;99.90;;;;;;4385159;32;20509;-56
2020/12/22 04:17:59;;;;;;;3.08;0.95;;;7.00;99.90;;;;;;4393251;32;20091;-59
2020/12/22 04:20:24;;;;;;;0.57;0.57;;;7.00;99.90;;;;;;4400352;32;20074;-55
2020/12/22 04:22:50;;;;;;;0.68;0.60;;;7.10;99.90;;;;;;4400729;32;20122;-58
2020/12/22 04:25:15;;;;;;;13.45;1.95;;;7.10;99.90;;;;;;4401095;32;20075;-59
2020/12/22 04:27:41;;;;;;;2.08;0.90;;;7.00;99.90;;;;;;4399979;32;20058;-59
2020/12/22 04:30:07;;;;;;;0.50;0.50;;;7.10;99.90;;;;;;4400653;32;20058;-59
2020/12/22 04:32:32;;;;;;;1.23;0.88;;;7.00;99.90;;;;;;4400009;32;20077;-59
2020/12/22 04:34:58;;;;;;;0.52;0.50;;;7.10;99.90;;;;;;4400978;32;20113;-59
2020/12/22 04:37:24;;;;;;;2.33;1.17;;;7.10;99.90;;;;;;4399958;32;20062;-56
2020/12/22 04:39:49;;;;;;;0.37;0.37;;;7.10;99.90;;;;;;4399766;32;20062;-58
2020/12/22 04:42:19;;;;;;;0.70;0.70;;;7.10;99.90;;;;;;4400945;32;20062;-59
2020/12/22 04:44:45;;;;;;;2.22;0.82;;;7.20;99.90;;;;;;4398925;32;20074;-54
2020/12/22 04:47:11;;;;;;;1.98;1.65;;;7.20;99.90;;;;;;4400254;32;20073;-54
2020/12/22 04:49:42;;;;;;;6.28;1.67;;;7.20;99.90;;;;;;4400241;32;20062;-57
2020/12/22 04:52:08;;;;;;;;;;;7.20;99.90;;;;;;4399423;32;20065;-58
2020/12/22 04:54:35;;;;;;;0.80;0.80;;;7.30;99.90;;;;;;4399989;32;19945;-57
2020/12/22 04:57:04;;;;;;;0.90;0.80;;;7.40;99.90;;;;;;4400055;32;20150;-57
2020/12/22 04:59:29;;;;;;;0.52;0.52;;;7.40;99.90;;;;;;4387124;32;20058;-59
2020/12/22 05:01:56;;;;;;;5.85;1.27;;;7.40;99.90;;;;;;4399687;32;20058;-59
2020/12/22 05:04:21;;;;;;;5.05;0.95;;;7.40;99.90;;;;;;4400569;32;20075;-57
2020/12/22 05:06:47;;;;;;;0.30;0.30;;;7.40;99.90;;;;;;4400637;32;20464;-59
2020/12/22 05:09:13;;;;;;;0.57;0.57;;;7.40;99.90;;;;;;4399852;32;20129;-59
2020/12/22 05:11:38;;;;;;;0.40;0.40;;;7.50;99.90;;;;;;4389352;32;20078;-58
2020/12/22 05:14:05;;;;;;;0.52;0.40;;;7.50;99.90;;;;;;4385107;32;20067;-59
2020/12/22 05:16:36;;;;;;;0.95;0.70;;;7.50;99.90;;;;;;4385335;32;20074;-59
2020/12/22 05:19:02;;;;;;;0.65;0.65;;;7.50;99.90;;;;;;4386604;32;20058;-58
2020/12/22 05:21:35;;;;;;;0.90;0.85;;;7.60;99.90;;;;;;4399399;32;20460;-58
2020/12/22 05:24:02;;;;;;;0.40;0.40;;;7.60;99.90;;;;;;4385154;32;20065;-60
2020/12/22 05:26:33;;;;;;;0.50;0.50;;;7.70;99.90;;;;;;4386793;32;20634;-59
2020/12/22 05:29:16;;;;;;;0.82;0.82;;;7.70;99.90;;;;;;4400420;32;20113;-57
2020/12/22 05:31:44;;;;;;;0.60;0.60;;;7.70;99.90;;;;;;4400035;32;20074;-56
2020/12/22 05:34:11;;;;;;;0.50;0.50;;;7.70;99.90;;;;;;4398444;32;20368;-59
2020/12/22 05:36:39;;;;;;;0.57;0.57;;;7.70;99.90;;;;;;4385903;32;20058;-56
2020/12/22 05:39:07;;;;;;;0.75;0.75;;;7.70;99.90;;;;;;4399612;32;20128;-58
2020/12/22 05:41:34;;;;;;;0.37;0.37;;;7.80;99.90;;;;;;4399498;32;20113;-59
2020/12/22 05:44:00;;;;;;;0.65;0.47;;;7.80;99.90;;;;;;4400401;32;20066;-59
2020/12/22 05:46:29;;;;;;;1.35;1.10;;;7.90;99.90;;;;;;4400465;32;20515;-58
2020/12/22 05:48:58;;;;;;;0.43;0.43;;;7.90;99.90;;;;;;4399604;32;20058;-60
2020/12/22 05:51:24;;;;;;;0.50;0.50;;;7.90;99.90;;;;;;4400546;32;20078;-58
2020/12/22 05:53:52;;;;;;;0.37;0.37;;;7.90;99.90;;;;;;4399755;32;20062;-59
2020/12/22 05:56:19;;;;;;;0.93;0.45;;;7.90;99.90;;;;;;4398760;32;20129;-58
2020/12/22 05:58:45;;;;;;;1.05;0.77;;;8.00;99.90;;;;;;4399655;32;20062;-57
2020/12/22 06:01:12;;;;;;;0.50;0.50;;;8.00;99.90;;;;;;4400323;32;20487;-60
2020/12/22 06:03:38;;;;;;;0.50;0.50;;;8.10;99.90;;;;;;4387739;32;20462;-58
2020/12/22 06:06:06;;;;;;;1.55;0.75;;;8.10;99.90;;;;;;4398711;32;20066;-58
2020/12/22 06:08:32;;;;;;;0.32;0.32;;;8.10;99.90;;;;;;4396059;32;20062;-58
2020/12/22 06:11:01;;;;;;;0.40;0.40;;;8.10;99.90;;;;;;4391005;32;20432;-59
2020/12/22 06:13:26;;;;;;;0.52;0.52;;;8.10;99.90;;;;;;4397972;32;20063;-59
2020/12/22 06:15:53;;;;;;;1.45;0.73;;;8.10;99.90;;;;;;4398104;32;20065;-60
2020/12/22 06:18:19;;;;;;;4.12;0.90;;;8.20;99.90;;;;;;4389995;32;20117;-59
2020/12/22 06:20:44;;;;;;;9.18;0.40;;;8.20;99.90;;;;;;4385399;32;20058;-56
2020/12/22 06:23:10;;;;;;;0.82;0.82;;;8.20;99.90;;;;;;4384010;32;20071;-59
2020/12/22 06:25:36;;;;;;;0.60;0.60;;;8.20;99.90;;;;;;4384034;32;20227;-54
2020/12/22 06:28:02;;;;;;;0.50;0.50;;;8.20;99.90;;;;;;4371233;32;20058;-58
2020/12/22 06:30:33;;;;;;;0.55;0.55;;;8.30;99.90;;;;;;4383917;32;20078;-57
2020/12/22 06:33:20;;;;;;;0.22;0.22;;;8.30;99.90;;;;;;4383576;32;20106;-59
2020/12/22 06:36:06;;;;;;;0.50;0.50;;;8.30;99.90;;;;;;4383598;32;20114;-58
2020/12/22 06:38:54;;;;;;;1.05;0.80;;;8.40;99.90;;;;;;4383380;32;20061;-57
2020/12/22 06:41:40;;;;;;;0.35;0.35;;;8.40;99.90;;;;;;4383180;32;20529;-60
2020/12/22 06:44:21;;;;;;;0.40;0.40;;;8.40;99.90;;;;;;4384853;32;20528;-59
2020/12/22 06:46:51;;;;;;;0.20;0.20;;;8.40;99.90;;;;;;4384478;32;20118;-59
2020/12/22 06:49:17;;;;;;;0.30;0.30;;;8.50;99.90;;;;;;4382759;32;20117;-59
2020/12/22 06:51:43;;;;;;;2.67;0.93;;;8.60;99.90;;;;;;4382693;32;20086;-59
2020/12/22 06:54:18;;;;;;;0.20;0.20;;;8.60;99.90;;;;;;4382890;32;20059;-58
2020/12/22 06:56:47;;;;;;;0.40;0.40;;;8.60;99.90;;;;;;4382841;32;20091;-57
2020/12/22 06:59:34;;;;;;;0.30;0.30;;;8.60;99.90;;;;;;4399560;32;20130;-54
2020/12/22 07:02:00;;;;;;;0.30;0.30;;;8.70;99.90;;;;;;4399978;32;20057;-60
2020/12/22 07:04:25;;;;;;;0.30;0.30;;;8.70;99.90;;;;;;4398282;32;20062;-58
2020/12/22 07:07:02;;;;;;;0.65;0.65;;;8.70;99.90;;;;;;4386111;32;20083;-56
2020/12/22 07:09:30;;;;;;;0.65;0.57;;;8.80;99.90;;;;;;4396532;32;20117;-54
2020/12/22 07:12:09;;;;;;;4.68;0.73;;;8.90;99.90;;;;;;4385185;32;20071;-57
2020/12/22 07:14:38;;;;;;;0.73;0.60;;;8.80;99.90;;;;;;4384429;32;20070;-60
2020/12/22 07:17:04;;;;;;;0.70;0.62;;;8.90;99.90;;;;;;4386277;32;20130;-56
2020/12/22 07:19:32;;;;;;;0.43;0.43;;;8.90;99.90;;;;;;4398689;32;20054;-58
2020/12/22 07:21:59;;;;;;;0.90;0.70;;;9.00;99.90;;;;;;4383591;32;20415;-57
2020/12/22 07:24:26;;;;;;;0.30;0.30;;;9.00;99.90;;;;;;4382258;32;20075;-56
2020/12/22 07:26:52;;;;;;;0.30;0.30;;;9.10;99.90;;;;;;4381759;32;20079;-58
2020/12/22 07:29:17;;;;;;;0.45;0.45;;;9.10;99.90;;;;;;4383218;32;20065;-58
2020/12/22 07:31:44;;;;;;;0.95;0.75;;;9.10;99.90;;;;;;4382893;32;20577;-60
2020/12/22 07:34:10;;;;;;;0.50;0.50;;;9.10;99.90;;;;;;4382928;32;20075;-59
2020/12/22 07:36:36;;;;;;;0.37;0.37;;;9.20;99.90;;;;;;4384550;32;20094;-58
2020/12/22 07:39:23;;;;;;;1.77;1.15;;;9.20;99.90;;;;;;4382794;32;20461;-60
2020/12/22 07:41:50;;;;;;;0.20;0.20;;;9.30;99.90;;;;;;4382805;32;20075;-59
2020/12/22 07:44:20;;;;;;;0.40;0.40;;;9.30;99.90;;;;;;4382359;32;20050;-59
2020/12/22 07:46:47;;;;;;;0.22;0.22;;;9.40;99.90;;;;;;4383976;32;20082;-58
2020/12/22 07:49:14;;;;;;;0.37;0.37;;;9.40;99.90;;;;;;4386054;32;20394;-58
2020/12/22 07:51:42;;;;;;;0.40;0.40;;;9.40;99.90;;;;;;4385786;32;20066;-60
2020/12/22 07:54:08;;;;;;;0.20;0.20;;;9.50;99.90;;;;;;4385003;32;20063;-59
2020/12/22 07:56:36;;;;;;;1.95;1.20;;;9.50;99.90;;;;;;4387531;32;20062;-58
2020/12/22 07:59:07;;;;;;;0.47;0.47;;;9.50;99.90;;;;;;4400263;32;20515;-59
2020/12/22 08:01:50;;;;;;;0.40;0.40;;;9.50;99.90;;;;;;4401282;32;20574;-60
2020/12/22 08:04:18;;;;;;;0.30;0.30;;;9.60;99.90;;;;;;4400830;32;20078;-59
2020/12/22 08:07:08;;;;;;;0.20;0.20;;;9.70;99.90;;;;;;4389091;32;20067;-59
2020/12/22 08:09:36;;;;;;;0.50;0.50;;;9.70;99.90;;;;;;4386226;32;20054;-59
2020/12/22 08:12:05;;;;;;;0.28;0.28;;;9.80;99.90;;;;;;4399011;32;20066;-58
2020/12/22 08:14:33;;;;;;;0.52;0.40;;;9.80;99.90;;;;;;4399847;32;20428;-59
2020/12/22 08:17:05;;;;;;;0.30;0.30;;;9.80;99.90;;;;;;4398966;32;20075;-57
2020/12/22 08:19:34;;;;;;;0.30;0.30;;;9.80;99.90;;;;;;4372523;32;20059;-58
2020/12/22 08:22:00;;;;;;;0.30;0.30;;;9.80;99.90;;;;;;4385288;32;20109;-59
2020/12/22 08:24:28;;;;;;;0.30;0.30;;;9.90;99.90;;;;;;4385017;32;20517;-54
2020/12/22 08:26:55;;;;;;;0.20;0.20;;;9.90;99.90;;;;;;4385349;32;20136;-56
2020/12/22 08:29:21;;;;;;;0.30;0.30;;;9.90;99.90;;;;;;4385074;32;20058;-59
2020/12/22 08:31:50;;;;;;;0.20;0.20;;;10.00;99.90;;;;;;4384593;32;20065;-58
2020/12/22 08:34:17;;;;;;;0.30;0.30;;;10.00;99.90;;;;;;4373154;32;20128;-56
2020/12/22 08:36:45;;;;;;;0.40;0.40;;;10.10;99.90;;;;;;4385795;32;20422;-59
2020/12/22 08:39:14;;;;;;;0.20;0.20;;;10.10;99.90;;;;;;4372475;32;20113;-60
2020/12/22 08:41:42;;;;;;;0.30;0.30;;;10.10;99.90;;;;;;4383777;32;94307;-59
2020/12/22 08:44:09;;;;;;;0.45;0.45;;;10.20;99.90;;;;;;4385317;32;20210;-59
2020/12/22 08:46:35;;;;;;;0.20;0.20;;;10.20;99.90;;;;;;4371647;32;20543;-56
2020/12/22 08:49:20;;;;;;;0.25;0.25;;;10.30;99.90;;;;;;4372106;32;20122;-60
2020/12/22 08:51:46;;;;;;;0.40;0.40;;;10.30;99.90;;;;;;4373317;32;20054;-60
2020/12/22 08:54:12;;;;;;;0.30;0.30;;;10.30;99.90;;;;;;4383768;32;20070;-59
2020/12/22 08:56:38;;;;;;;0.20;0.20;;;10.30;99.90;;;;;;4388737;32;20081;-54
2020/12/22 08:59:05;;;;;;;0.20;0.20;;;10.40;99.90;;;;;;4386341;32;20090;-57
2020/12/22 09:01:41;;;;;;;0.25;0.25;;;10.40;99.90;;;;;;4399854;32;20062;-59
2020/12/22 09:04:08;;;;;;;0.20;0.20;;;10.50;99.90;;;;;;4399522;32;20082;-58
2020/12/22 09:06:35;;;;;;;0.28;0.28;;;10.50;99.90;;;;;;4390707;32;20059;-56
2020/12/22 09:09:03;;;;;;;0.25;0.25;;;10.60;99.90;;;;;;4372327;32;20411;-58
2020/12/22 09:11:28;;;;;;;0.55;0.55;;;10.60;99.90;;;;;;4394505;32;20054;-55
2020/12/22 09:14:18;;;;;;;0.30;0.30;;;10.60;99.90;;;;;;4401228;32;20078;-58
2020/12/22 09:16:46;;;;;;;0.30;0.30;;;10.60;99.90;;;;;;4401385;32;20117;-56
2020/12/22 09:19:11;;;;;;;0.30;0.30;;;10.60;99.90;;;;;;4385941;32;20129;-57
2020/12/22 09:21:38;;;;;;;0.20;0.20;;;10.70;99.90;;;;;;4386063;32;20086;-57
2020/12/22 09:24:04;;;;;;;0.20;0.20;;;10.70;99.90;;;;;;4385479;32;20110;-59
2020/12/22 09:26:29;;;;;;;0.20;0.20;;;10.70;99.90;;;;;;4385464;32;20067;-55
2020/12/22 09:28:55;;;;;;;0.20;0.20;;;10.70;99.90;;;;;;4384828;32;20063;-53
2020/12/22 09:31:23;;;;;;;0.30;0.30;;;10.80;99.90;;;;;;4386277;32;20059;-59
2020/12/22 09:33:48;;;;;;;0.57;0.57;;;10.80;99.90;;;;;;4384804;32;20410;-55
2020/12/22 09:36:14;;;;;;;0.30;0.30;;;10.90;99.90;;;;;;4384709;32;20062;-56
2020/12/22 09:38:39;;;;;;;0.35;0.35;;;10.90;99.90;;;;;;4384475;32;20521;-56
2020/12/22 09:41:04;;;;;;;0.20;0.20;;;10.90;99.90;;;;;;4384676;32;20408;-58
2020/12/22 09:43:30;;;;;;;0.32;0.32;;;11.00;99.90;;;;;;4385072;32;20062;-58
2020/12/22 09:45:55;;;;;;;0.30;0.30;;;11.00;99.90;;;;;;4385636;32;20181;-53
2020/12/22 09:48:21;;;;;;;0.20;0.20;;;11.00;99.90;;;;;;4384597;32;20063;-57
2020/12/22 09:50:46;;;;;;;2.37;1.27;;;11.10;99.90;;;;;;4386655;32;20075;-59
2020/12/22 09:53:12;;;;;;;0.52;0.52;;;11.10;99.90;;;;;;4384887;32;20066;-55
2020/12/22 09:55:37;;;;;;;0.30;0.30;;;11.20;99.90;;;;;;4384900;32;20071;-56
2020/12/22 09:58:03;;;;;;;0.20;0.20;;;11.20;99.90;;;;;;4398151;32;20066;-55
2020/12/22 10:00:28;;;;;;;0.20;0.20;;;11.20;99.90;;;;;;4400431;32;20058;-56
2020/12/22 10:02:53;;;;;;;0.20;0.20;;;11.30;99.90;;;;;;4399493;32;20433;-59
2020/12/22 10:05:19;;;;;;;0.30;0.30;;;11.30;99.90;;;;;;4396662;32;20059;-54
2020/12/22 10:07:44;;;;;;;0.43;0.32;;;11.30;99.90;;;;;;4384653;32;20083;-59
2020/12/22 10:10:10;;;;;;;0.60;0.60;;;11.40;99.90;;;;;;4386356;32;20500;-58
2020/12/22 10:12:35;;;;;;;0.20;0.20;;;11.40;99.90;;;;;;4398845;32;20066;-57
2020/12/22 10:15:01;;;;;;;0.30;0.30;;;11.50;99.90;;;;;;4399743;32;20058;-57
2020/12/22 10:17:28;;;;;;;0.20;0.20;;;11.50;99.90;;;;;;4400511;32;20078;-58
2020/12/22 10:19:54;;;;;;;0.30;0.30;;;11.50;99.90;;;;;;4400789;32;20058;-55
2020/12/22 10:22:19;;;;;;;0.20;0.20;;;11.40;99.90;;;;;;4400425;32;20066;-57
2020/12/22 10:24:45;;;;;;;0.35;0.35;;;11.50;99.90;;;;;;4398629;32;20402;-56
2020/12/22 10:27:10;;;;;;;0.30;0.30;;;11.50;99.90;;;;;;4399726;32;20117;-55
2020/12/22 10:29:36;;;;;;;0.30;0.30;;;11.50;99.90;;;;;;4399640;32;20062;-59
2020/12/22 10:32:01;;;;;;;0.20;0.20;;;11.50;99.90;;;;;;4399024;32;20389;-56
2020/12/22 10:34:27;;;;;;;0.32;0.32;;;11.60;99.90;;;;;;4398581;32;20070;-57
2020/12/22 10:36:52;;;;;;;0.22;0.22;;;11.50;99.90;;;;;;4399497;32;20079;-57
2020/12/22 10:39:17;;;;;;;0.30;0.30;;;11.60;99.90;;;;;;4399976;32;20058;-58
2020/12/22 10:41:43;;;;;;;0.30;0.30;;;11.60;99.90;;;;;;4399118;32;20104;-57
2020/12/22 10:44:08;;;;;;;0.55;0.20;;;11.60;99.90;;;;;;4399738;32;20527;-57
2020/12/22 10:46:34;;;;;;;0.30;0.30;;;11.60;99.90;;;;;;4398735;32;20121;-59
2020/12/22 10:49:00;;;;;;;0.37;0.30;;;11.60;99.90;;;;;;4399610;32;20129;-59
2020/12/22 10:51:25;;;;;;;0.75;0.50;;;11.70;99.90;;;;;;4400143;32;20511;-57
2020/12/22 10:53:51;;;;;;;0.80;0.30;;;11.70;99.90;;;;;;4398059;32;20410;-58
2020/12/22 10:56:17;;;;;;;0.20;0.20;;;11.80;99.90;;;;;;4396769;32;20101;-56
2020/12/22 10:58:43;;;;;;;0.20;0.20;;;11.80;99.90;;;;;;4384922;32;20066;-57
2020/12/22 11:01:11;;;;;;;0.20;0.20;;;11.90;99.90;;;;;;4383640;32;20066;-57
2020/12/22 11:03:36;;;;;;;0.20;0.20;;;11.90;99.90;;;;;;4383657;32;20074;-58
2020/12/22 11:06:44;;;;;;;0.30;0.30;;;11.90;99.90;;;;;;4392245;32;20117;-55
2020/12/22 11:08:48;;;;;;;0.30;0.30;;;11.90;99.90;;;;;;4398222;32;20083;-59
2020/12/22 11:11:14;;;;;;;0.40;0.40;;;12.00;99.90;;;;;;4391483;32;20422;-57
2020/12/22 11:13:39;;;;;;;0.30;0.30;;;12.00;99.90;;;;;;4371276;32;20114;-58
2020/12/22 11:16:07;;;;;;;0.20;0.20;;;12.00;99.90;;;;;;4370193;32;20070;-58
2020/12/22 11:18:33;;;;;;;0.20;0.20;;;12.00;99.90;;;;;;4393449;32;20433;-59
2020/12/22 11:20:59;;;;;;;0.30;0.30;;;12.10;99.90;;;;;;4398596;32;20149;-57
2020/12/22 11:23:24;;;;;;;0.20;0.20;;;12.10;99.90;;;;;;4396892;32;20062;-57
2020/12/22 11:25:50;;;;;;;0.30;0.30;;;12.30;99.90;;;;;;4399136;32;20584;-58
2020/12/22 11:28:15;;;;;;;0.20;0.20;;;12.30;99.90;;;;;;4400103;32;20077;-58
2020/12/22 11:30:41;;;;;;;0.20;0.20;;;12.30;99.90;;;;;;4399680;32;20054;-54
2020/12/22 11:33:06;;;;;;;0.20;0.20;;;12.30;99.90;;;;;;4400675;32;20074;-55
2020/12/22 11:35:32;;;;;;;0.30;0.30;;;12.30;99.90;;;;;;4398461;32;20205;-57
2020/12/22 11:37:58;;;;;;;0.40;0.40;;;12.30;99.90;;;;;;4399517;32;20066;-58
2020/12/22 11:40:24;;;;;;;0.30;0.30;;;12.30;99.90;;;;;;4399456;32;20087;-59
2020/12/22 11:42:49;;;;;;;0.30;0.30;;;12.30;99.90;;;;;;4398169;32;20062;-57
2020/12/22 11:45:15;;;;;;;0.22;0.22;;;12.40;99.90;;;;;;4398434;32;20058;-59
2020/12/22 11:47:40;;;;;;;0.30;0.30;;;12.40;99.90;;;;;;4398921;32;20554;-57
2020/12/22 11:50:06;;;;;;;0.55;0.55;;;12.50;99.90;;;;;;4397511;32;20067;-55
2020/12/22 11:52:32;;;;;;;0.30;0.30;;;12.50;99.90;;;;;;4398914;32;20070;-58
2020/12/22 11:54:57;;;;;;;0.30;0.30;;;12.50;99.90;;;;;;4400744;32;20058;-54
2020/12/22 11:57:23;;;;;;;0.37;0.37;;;12.60;99.90;;;;;;4398649;32;20094;-57
2020/12/22 11:59:48;;;;;;;0.30;0.30;;;12.70;99.90;;;;;;4398692;32;20078;-55
2020/12/22 12:02:14;;;;;;;0.40;0.40;;;12.70;99.90;;;;;;4398288;32;20462;-54
2020/12/22 12:04:39;;;;;;;0.30;0.30;;;12.70;99.90;;;;;;4399290;32;20109;-56
2020/12/22 12:07:05;;;;;;;0.30;0.30;;;12.80;99.90;;;;;;4385272;32;20062;-54
2020/12/22 12:09:30;;;;;;;0.30;0.30;;;12.90;99.90;;;;;;4383805;32;20055;-55
2020/12/22 12:11:56;;;;;;;0.20;0.20;;;13.00;99.90;;;;;;4396587;32;20083;-53
2020/12/22 12:14:21;;;;;;;0.30;0.30;;;13.10;99.90;;;;;;4398606;32;20063;-55
2020/12/22 12:16:48;;;;;;;0.30;0.30;;;13.20;99.90;;;;;;4399359;32;20121;-56
2020/12/22 12:19:14;;;;;;;0.20;0.20;;;13.30;99.90;;;;;;4396907;32;20075;-56
2020/12/22 12:21:40;;;;;;;0.20;0.20;;;13.40;99.90;;;;;;4396934;32;20499;-56
2020/12/22 12:24:06;;;;;;;0.30;0.30;;;13.40;99.90;;;;;;4396264;32;20137;-56
2020/12/22 12:26:32;;;;;;;0.30;0.30;;;13.40;99.90;;;;;;4397945;32;20066;-57
2020/12/22 12:28:57;;;;;;;0.30;0.30;;;13.40;99.90;;;;;;4399126;32;20229;-56
2020/12/22 12:31:24;;;;;;;0.20;0.20;;;13.30;99.90;;;;;;4397991;32;20058;-53
2020/12/22 12:33:50;;;;;;;0.30;0.30;;;13.40;99.90;;;;;;4399936;32;20070;-54
2020/12/22 12:36:16;;;;;;;0.35;0.35;;;13.50;99.90;;;;;;4399290;32;20116;-54
2020/12/22 12:38:42;;;;;;;0.20;0.20;;;13.60;99.90;;;;;;4399370;32;20118;-56
2020/12/22 12:41:11;;;;;;;0.25;0.25;;;13.80;99.90;;;;;;4401232;32;20518;-56
2020/12/22 12:43:37;;;;;;;0.30;0.30;;;14.10;99.90;;;;;;4401129;32;20057;-53
2020/12/22 12:46:05;;;;;;;0.40;0.40;;;14.40;99.90;;;;;;4400777;32;20116;-55
2020/12/22 12:48:31;;;;;;;0.30;0.30;;;14.60;99.90;;;;;;4399998;32;20058;-57
2020/12/22 12:50:56;;;;;;;0.30;0.30;;;14.70;99.90;;;;;;4400652;32;20074;-53
2020/12/22 12:53:22;;;;;;;0.20;0.20;;;14.80;99.90;;;;;;4400254;32;20447;-56
2020/12/22 12:55:47;;;;;;;0.62;0.50;;;14.60;99.90;;;;;;4399817;32;20070;-54